Time;durP1;ratioP1;P1;durP2;ratioP2;P2;SDS_P1;SDS_P2;PMS_P1;PMS_P2;Temp;Humidity;BMP_temperature;BMP_pressure;BME280_temperature;BME280_humidity;BME280_pressure;Samples;Min_cycle;Max_cycle;Signal;HPM_P1;HPM_P2
2021/07/08 00:01:28;;;;;;;19.48;15.20;;;23.80;99.90;;;;;;4441628;32;20158;-66
2021/07/08 00:03:55;;;;;;;19.10;15.50;;;23.70;99.90;;;;;;4441754;32;20405;-66
2021/07/08 00:06:23;;;;;;;19.02;15.48;;;23.70;99.90;;;;;;4441523;32;20150;-66
2021/07/08 00:08:49;;;;;;;17.58;15.00;;;23.80;99.90;;;;;;4441574;32;20135;-67
2021/07/08 00:11:16;;;;;;;18.08;15.18;;;23.60;99.90;;;;;;4436947;32;20143;-66
2021/07/08 00:13:45;;;;;;;18.37;14.77;;;23.60;99.90;;;;;;4432657;32;20154;-66
2021/07/08 00:16:12;;;;;;;19.50;15.45;;;23.70;99.90;;;;;;4424432;32;20184;-67
2021/07/08 00:18:39;;;;;;;19.25;16.33;;;23.80;99.90;;;;;;4425885;32;20332;-67
2021/07/08 00:21:06;;;;;;;19.25;14.65;;;23.80;99.90;;;;;;4425826;32;20444;-66
2021/07/08 00:23:33;;;;;;;18.50;15.00;;;23.80;99.90;;;;;;4424101;32;20360;-67
2021/07/08 00:25:59;;;;;;;19.40;15.00;;;23.80;99.90;;;;;;4425288;32;20139;-67
2021/07/08 00:28:26;;;;;;;20.15;15.52;;;23.80;99.90;;;;;;4424265;32;20173;-67
2021/07/08 00:30:53;;;;;;;17.87;15.37;;;23.90;99.90;;;;;;4425582;32;20170;-67
2021/07/08 00:33:21;;;;;;;17.92;15.18;;;23.80;99.90;;;;;;4423976;32;20134;-66
2021/07/08 00:35:49;;;;;;;19.02;15.63;;;23.90;99.90;;;;;;4424105;32;20248;-67
2021/07/08 00:38:16;;;;;;;20.90;15.40;;;23.80;99.90;;;;;;4424096;32;20163;-66
2021/07/08 00:40:43;;;;;;;19.83;15.48;;;23.80;99.90;;;;;;4423943;32;20402;-66
2021/07/08 00:43:10;;;;;;;19.42;15.02;;;23.70;99.90;;;;;;4425468;32;20195;-66
2021/07/08 00:45:37;;;;;;;20.27;15.50;;;23.70;99.90;;;;;;4423962;32;20143;-67
2021/07/08 00:48:05;;;;;;;20.17;16.15;;;23.70;99.90;;;;;;4425442;32;20143;-67
2021/07/08 00:50:42;;;;;;;20.67;16.02;;;23.70;99.90;;;;;;4425389;32;20449;-67
2021/07/08 00:53:10;;;;;;;22.30;16.05;;;23.70;99.90;;;;;;4425534;32;20150;-67
2021/07/08 00:55:38;;;;;;;23.42;16.48;;;23.70;99.90;;;;;;4423969;32;20131;-67
2021/07/08 00:58:07;;;;;;;20.00;16.07;;;23.80;99.90;;;;;;4425468;32;20216;-67
2021/07/08 01:00:35;;;;;;;19.60;15.77;;;23.60;99.90;;;;;;4423809;32;20134;-67
2021/07/08 01:03:07;;;;;;;19.50;15.32;;;23.60;99.90;;;;;;4424041;32;20143;-67
2021/07/08 01:05:38;;;;;;;19.67;15.43;;;23.70;99.90;;;;;;4424899;32;20385;-67
2021/07/08 01:08:06;;;;;;;21.80;15.23;;;23.60;99.90;;;;;;4425574;32;20219;-67
2021/07/08 01:10:33;;;;;;;19.83;14.85;;;23.70;99.90;;;;;;4423815;32;20159;-67
2021/07/08 01:13:00;;;;;;;19.65;14.20;;;23.50;99.90;;;;;;4425450;32;20160;-67
2021/07/08 01:15:28;;;;;;;18.27;13.90;;;23.50;99.90;;;;;;4425459;32;20135;-67
2021/07/08 01:17:55;;;;;;;19.65;13.68;;;23.30;99.90;;;;;;4425381;32;20254;-67
2021/07/08 01:20:27;;;;;;;22.05;14.32;;;23.30;99.90;;;;;;4423762;32;20399;-67
2021/07/08 01:22:58;;;;;;;16.85;13.75;;;23.30;99.90;;;;;;4425296;32;20134;-67
2021/07/08 01:25:28;;;;;;;23.37;14.30;;;23.30;99.90;;;;;;4425366;32;20242;-67
2021/07/08 01:27:56;;;;;;;20.73;13.90;;;23.10;99.90;;;;;;4425220;32;20173;-68
2021/07/08 01:30:23;;;;;;;17.90;13.55;;;23.00;99.90;;;;;;4423148;32;20204;-68
2021/07/08 01:32:50;;;;;;;16.50;13.00;;;22.90;99.90;;;;;;4425070;32;20404;-67
2021/07/08 01:35:18;;;;;;;17.93;12.90;;;23.00;99.90;;;;;;4425043;32;20144;-67
2021/07/08 01:37:45;;;;;;;16.10;12.30;;;22.90;99.90;;;;;;4425286;32;20233;-68
2021/07/08 01:40:15;;;;;;;18.58;12.52;;;22.70;99.90;;;;;;4424834;32;20177;-67
2021/07/08 01:42:43;;;;;;;18.20;12.33;;;22.60;99.90;;;;;;4423841;32;20153;-66
2021/07/08 01:45:13;;;;;;;18.10;11.95;;;22.60;99.90;;;;;;4425164;32;20153;-67
2021/07/08 01:47:42;;;;;;;15.73;11.10;;;22.60;99.90;;;;;;4425190;32;20166;-68
2021/07/08 01:50:13;;;;;;;16.07;11.80;;;22.50;99.90;;;;;;4424278;32;20487;-68
2021/07/08 01:52:40;;;;;;;13.20;10.80;;;22.40;99.90;;;;;;4425507;32;20192;-66
2021/07/08 01:55:08;;;;;;;14.20;11.47;;;22.40;99.90;;;;;;4423658;32;20383;-66
2021/07/08 01:57:41;;;;;;;12.80;10.87;;;22.40;99.90;;;;;;4424402;32;20194;-67
2021/07/08 02:00:13;;;;;;;16.30;12.02;;;22.30;99.90;;;;;;4423124;32;20542;-67
2021/07/08 02:02:41;;;;;;;18.17;11.67;;;22.20;99.90;;;;;;4425351;32;20177;-66
2021/07/08 02:05:09;;;;;;;14.90;11.67;;;22.20;99.90;;;;;;4424884;32;20143;-67
2021/07/08 02:07:37;;;;;;;15.73;11.30;;;22.10;99.90;;;;;;4423620;32;20143;-66
2021/07/08 02:10:11;;;;;;;14.97;10.57;;;22.10;99.90;;;;;;4424933;32;20135;-69
2021/07/08 02:12:39;;;;;;;15.83;10.87;;;22.10;99.90;;;;;;4423486;32;20187;-66
2021/07/08 02:15:08;;;;;;;12.90;10.23;;;22.10;99.90;;;;;;4424985;32;20163;-68
2021/07/08 02:17:37;;;;;;;15.97;10.97;;;22.10;99.90;;;;;;4423502;32;20178;-67
2021/07/08 02:20:07;;;;;;;14.87;10.33;;;22.00;99.90;;;;;;4423347;32;20206;-67
2021/07/08 02:22:34;;;;;;;12.97;9.90;;;22.00;99.90;;;;;;4424847;32;20187;-68
2021/07/08 02:25:01;;;;;;;12.50;9.80;;;21.90;99.90;;;;;;4423624;32;20178;-67
2021/07/08 02:27:28;;;;;;;15.53;9.70;;;21.90;99.90;;;;;;4423429;32;20140;-66
2021/07/08 02:29:55;;;;;;;13.03;9.83;;;21.80;99.90;;;;;;4423432;32;20166;-68
2021/07/08 02:32:23;;;;;;;16.07;10.77;;;21.70;99.90;;;;;;4423579;32;20151;-67
2021/07/08 02:34:50;;;;;;;14.03;10.23;;;21.60;99.90;;;;;;4424837;32;20384;-67
2021/07/08 02:37:16;;;;;;;18.73;11.03;;;21.60;99.90;;;;;;4423365;32;20143;-66
2021/07/08 02:39:43;;;;;;;23.27;12.93;;;21.60;99.90;;;;;;4422748;32;20350;-67
2021/07/08 02:42:10;;;;;;;19.10;13.43;;;21.60;99.90;;;;;;4424852;32;20200;-68
2021/07/08 02:44:37;;;;;;;20.27;13.30;;;21.50;99.90;;;;;;4423270;32;20139;-67
2021/07/08 02:47:04;;;;;;;24.43;14.37;;;21.50;99.90;;;;;;4423277;32;20135;-67
2021/07/08 02:49:31;;;;;;;22.57;13.83;;;21.50;99.90;;;;;;4425409;32;20473;-67
2021/07/08 02:51:58;;;;;;;24.93;14.97;;;21.50;99.90;;;;;;4427126;32;20165;-67
2021/07/08 02:54:24;;;;;;;29.10;16.70;;;21.40;99.90;;;;;;4427247;32;20139;-67
2021/07/08 02:56:51;;;;;;;25.17;15.87;;;21.30;99.90;;;;;;4425848;32;20144;-67
2021/07/08 02:59:18;;;;;;;29.47;16.83;;;21.10;99.90;;;;;;4425864;32;20139;-67
2021/07/08 03:01:45;;;;;;;29.43;17.37;;;21.20;99.90;;;;;;4424836;32;20151;-67
2021/07/08 03:04:12;;;;;;;26.30;15.50;;;21.30;99.90;;;;;;4425558;32;20166;-67
2021/07/08 03:06:39;;;;;;;29.83;16.43;;;21.30;99.90;;;;;;4423934;32;20193;-67
2021/07/08 03:09:06;;;;;;;32.03;18.07;;;21.40;99.90;;;;;;4426763;32;20206;-67
2021/07/08 03:11:33;;;;;;;36.60;17.80;;;21.20;99.90;;;;;;4426999;32;20158;-67
2021/07/08 03:13:59;;;;;;;28.53;17.57;;;21.20;99.90;;;;;;4427064;32;20188;-67
2021/07/08 03:16:26;;;;;;;30.00;18.50;;;21.10;99.90;;;;;;4426993;32;20196;-67
2021/07/08 03:18:53;;;;;;;30.47;18.40;;;21.00;99.90;;;;;;4425487;32;20497;-67
2021/07/08 03:21:21;;;;;;;29.90;18.90;;;21.00;99.90;;;;;;4426982;32;20126;-67
2021/07/08 03:23:47;;;;;;;29.47;18.07;;;21.00;99.90;;;;;;4426416;32;20170;-67
2021/07/08 03:26:14;;;;;;;29.43;18.07;;;21.10;99.90;;;;;;4427344;32;20144;-67
2021/07/08 03:28:41;;;;;;;30.77;18.03;;;21.30;99.90;;;;;;4424316;32;20181;-67
2021/07/08 03:31:08;;;;;;;27.50;17.00;;;21.30;99.90;;;;;;4425284;32;20377;-67
2021/07/08 03:33:35;;;;;;;25.80;16.40;;;21.40;99.90;;;;;;4426770;32;20184;-67
2021/07/08 03:36:03;;;;;;;24.43;16.80;;;21.40;99.90;;;;;;4425227;32;20140;-67
2021/07/08 03:38:30;;;;;;;26.60;16.83;;;21.40;99.90;;;;;;4426699;32;20139;-67
2021/07/08 03:40:56;;;;;;;25.90;17.20;;;21.50;99.90;;;;;;4426678;32;20492;-67
2021/07/08 03:43:23;;;;;;;32.50;18.07;;;21.30;99.90;;;;;;4426784;32;20227;-66
2021/07/08 03:45:50;;;;;;;27.37;16.87;;;21.30;99.90;;;;;;4424977;32;20143;-66
2021/07/08 03:48:17;;;;;;;27.27;17.93;;;21.30;99.90;;;;;;4426511;32;20211;-66
2021/07/08 03:50:44;;;;;;;29.87;18.30;;;21.30;99.90;;;;;;4426772;32;20158;-67
2021/07/08 03:53:11;;;;;;;32.00;19.40;;;21.30;99.90;;;;;;4426726;32;20434;-67
2021/07/08 03:55:38;;;;;;;31.00;19.70;;;21.40;99.90;;;;;;4426071;32;20131;-67
2021/07/08 03:58:05;;;;;;;32.67;18.97;;;21.50;99.90;;;;;;4426418;32;20200;-67
2021/07/08 04:00:33;;;;;;;37.67;22.43;;;21.50;99.90;;;;;;4424624;32;20192;-66
2021/07/08 04:03:03;;;;;;;40.23;22.77;;;21.50;99.90;;;;;;4426298;32;20139;-66
2021/07/08 04:05:30;;;;;;;37.83;22.77;;;21.70;99.90;;;;;;4428296;32;20235;-67
2021/07/08 04:07:58;;;;;;;41.50;23.37;;;21.70;99.90;;;;;;4433209;32;20159;-67
2021/07/08 04:10:25;;;;;;;50.33;26.87;;;21.80;99.90;;;;;;4432260;32;20407;-67
2021/07/08 04:12:52;;;;;;;53.10;27.60;;;21.90;99.90;;;;;;4426174;32;20162;-67
2021/07/08 04:15:20;;;;;;;58.03;30.20;;;22.00;99.90;;;;;;4426350;32;20139;-65
2021/07/08 04:17:48;;;;;;;59.00;29.83;;;21.60;99.90;;;;;;4425970;32;20197;-65
2021/07/08 04:20:18;;;;;;;49.77;28.17;;;21.50;99.90;;;;;;4426170;32;20452;-65
2021/07/08 04:22:47;;;;;;;47.77;27.07;;;21.70;99.90;;;;;;4426159;32;20139;-65
2021/07/08 04:25:14;;;;;;;49.67;27.07;;;21.80;99.90;;;;;;4424399;32;20237;-65
2021/07/08 04:27:42;;;;;;;47.03;26.17;;;21.70;99.90;;;;;;4424125;32;20139;-65
2021/07/08 04:30:12;;;;;;;47.97;28.13;;;21.80;99.90;;;;;;4425706;32;20157;-65
2021/07/08 04:32:40;;;;;;;51.03;27.70;;;21.70;99.90;;;;;;4424593;32;20200;-65
2021/07/08 04:35:10;;;;;;;48.50;27.73;;;21.80;99.90;;;;;;4425860;32;20415;-65
2021/07/08 04:37:41;;;;;;;41.70;25.60;;;21.90;99.90;;;;;;4425991;32;20476;-65
2021/07/08 04:40:11;;;;;;;43.17;25.83;;;21.90;99.90;;;;;;4427789;32;20176;-65
2021/07/08 04:42:39;;;;;;;39.87;24.33;;;21.90;99.90;;;;;;4432500;32;20292;-64
2021/07/08 04:45:07;;;;;;;40.60;25.20;;;21.90;99.90;;;;;;4425635;32;20176;-65
2021/07/08 04:47:37;;;;;;;37.13;24.60;;;22.00;99.90;;;;;;4425202;32;20131;-65
2021/07/08 04:50:06;;;;;;;41.93;26.70;;;22.10;99.90;;;;;;4424937;32;20449;-65
2021/07/08 04:52:33;;;;;;;42.50;25.20;;;22.00;99.90;;;;;;4425587;32;20166;-65
2021/07/08 04:55:00;;;;;;;43.73;26.10;;;21.80;99.90;;;;;;4425668;32;20136;-65
2021/07/08 04:57:27;;;;;;;36.23;24.17;;;22.00;99.90;;;;;;4423780;32;20402;-66
2021/07/08 04:59:54;;;;;;;38.50;24.90;;;22.10;99.90;;;;;;4424004;32;20177;-65
2021/07/08 05:02:21;;;;;;;40.03;23.73;;;22.30;99.90;;;;;;4424266;32;20217;-64
2021/07/08 05:04:48;;;;;;;38.13;23.70;;;22.40;99.90;;;;;;4424564;32;20539;-66
2021/07/08 05:07:16;;;;;;;38.77;24.47;;;22.30;99.90;;;;;;4425090;32;20185;-65
2021/07/08 05:09:43;;;;;;;41.07;25.87;;;22.30;99.90;;;;;;4424865;32;20209;-65
2021/07/08 05:12:10;;;;;;;41.03;24.90;;;22.10;99.90;;;;;;4423661;32;20511;-66
2021/07/08 05:14:37;;;;;;;42.27;24.73;;;21.90;99.90;;;;;;4424419;32;20592;-65
2021/07/08 05:17:05;;;;;;;42.40;25.80;;;21.90;99.90;;;;;;4425011;32;20200;-65
2021/07/08 05:19:32;;;;;;;41.60;24.83;;;22.00;99.90;;;;;;4423855;32;20188;-66
2021/07/08 05:22:02;;;;;;;37.03;23.80;;;22.00;99.90;;;;;;4424857;32;20262;-65
2021/07/08 05:24:29;;;;;;;40.33;26.30;;;22.10;99.90;;;;;;4422594;32;20421;-65
2021/07/08 05:26:56;;;;;;;39.73;24.17;;;22.10;99.90;;;;;;4424931;32;20493;-66
2021/07/08 05:29:23;;;;;;;40.40;25.57;;;22.10;99.90;;;;;;4431567;32;20146;-65
2021/07/08 05:31:50;;;;;;;43.27;26.60;;;22.10;99.90;;;;;;4431690;32;20147;-65
2021/07/08 05:34:18;;;;;;;38.37;24.67;;;22.20;99.90;;;;;;4434145;32;20387;-66
2021/07/08 05:36:45;;;;;;;42.87;24.53;;;22.30;99.90;;;;;;4425036;32;20174;-65
2021/07/08 05:39:12;;;;;;;36.87;22.83;;;22.50;99.90;;;;;;4424977;32;20477;-66
2021/07/08 05:41:40;;;;;;;36.20;24.07;;;22.60;99.90;;;;;;4427151;32;20182;-65
2021/07/08 05:44:06;;;;;;;41.90;24.70;;;22.70;99.90;;;;;;4435215;32;20239;-65
2021/07/08 05:46:38;;;;;;;36.80;23.53;;;22.80;99.90;;;;;;4425136;32;20174;-66
2021/07/08 05:49:05;;;;;;;42.77;24.40;;;22.90;99.90;;;;;;4434316;32;20181;-65
2021/07/08 05:51:32;;;;;;;48.33;27.17;;;23.00;99.90;;;;;;4430356;32;20176;-65
2021/07/08 05:53:59;;;;;;;42.65;25.30;;;22.70;99.90;;;;;;4435276;32;20207;-65
2021/07/08 05:56:27;;;;;;;37.40;24.13;;;22.70;99.90;;;;;;4440216;32;20212;-65
2021/07/08 05:58:54;;;;;;;39.78;24.90;;;22.90;99.90;;;;;;4440346;32;20154;-64
2021/07/08 06:01:22;;;;;;;41.37;25.03;;;23.10;99.90;;;;;;4439759;32;20203;-66
2021/07/08 06:03:49;;;;;;;39.05;23.48;;;23.30;99.90;;;;;;4438028;32;20177;-65
2021/07/08 06:06:17;;;;;;;38.95;24.33;;;23.40;99.90;;;;;;4439822;32;20303;-65
2021/07/08 06:08:45;;;;;;;36.42;24.50;;;23.50;99.90;;;;;;4437802;32;20154;-64
2021/07/08 06:11:13;;;;;;;38.28;23.80;;;23.60;99.90;;;;;;4438884;32;20207;-66
2021/07/08 06:13:41;;;;;;;44.58;28.30;;;23.70;99.90;;;;;;4437575;32;20191;-66
2021/07/08 06:16:08;;;;;;;40.70;25.50;;;23.50;99.90;;;;;;4424725;32;20138;-67
2021/07/08 06:18:36;;;;;;;38.63;25.73;;;23.20;99.90;;;;;;4423187;32;20188;-64
2021/07/08 06:21:04;;;;;;;47.65;28.70;;;23.30;99.90;;;;;;4422998;32;20176;-64
2021/07/08 06:23:32;;;;;;;44.05;28.70;;;22.90;99.90;;;;;;4436994;32;20150;-64
2021/07/08 06:25:59;;;;;;;47.88;28.40;;;22.50;99.90;;;;;;4438677;32;20203;-64
2021/07/08 06:28:26;;;;;;;43.00;26.73;;;22.60;99.90;;;;;;4431535;32;20146;-65
2021/07/08 06:30:53;;;;;;;39.85;26.60;;;22.80;99.90;;;;;;4440570;32;20277;-66
2021/07/08 06:33:20;;;;;;;39.80;26.80;;;22.90;99.90;;;;;;4437968;32;20257;-66
2021/07/08 06:35:48;;;;;;;41.00;27.17;;;23.10;99.90;;;;;;4440651;32;20555;-65
2021/07/08 06:38:15;;;;;;;43.43;27.27;;;23.20;99.90;;;;;;4439777;32;20496;-64
2021/07/08 06:40:42;;;;;;;37.07;25.93;;;23.00;99.90;;;;;;4442288;32;20225;-64
2021/07/08 06:43:09;;;;;;;39.88;26.08;;;22.90;99.90;;;;;;4431047;32;20222;-64
2021/07/08 06:45:36;;;;;;;37.97;26.23;;;22.80;99.90;;;;;;4439590;32;20176;-64
2021/07/08 06:48:09;;;;;;;36.40;25.13;;;23.00;99.90;;;;;;4442138;32;20182;-64
2021/07/08 06:50:36;;;;;;;34.35;24.05;;;23.00;99.90;;;;;;4442386;32;20135;-65
2021/07/08 06:53:04;;;;;;;37.50;26.35;;;23.30;99.90;;;;;;4442274;32;20147;-64
2021/07/08 06:55:34;;;;;;;38.72;26.55;;;23.60;99.90;;;;;;4442291;32;20165;-64
2021/07/08 06:58:01;;;;;;;35.10;25.52;;;23.80;99.90;;;;;;4439748;32;20221;-64
2021/07/08 07:00:30;;;;;;;43.28;26.27;;;24.00;99.90;;;;;;4442375;32;20192;-64
2021/07/08 07:02:58;;;;;;;40.28;25.12;;;24.20;99.90;;;;;;4440868;32;20465;-65
2021/07/08 07:05:27;;;;;;;36.08;25.77;;;24.20;99.90;;;;;;4442403;32;20170;-65
2021/07/08 07:07:54;;;;;;;37.92;26.92;;;24.20;99.90;;;;;;4440983;32;20146;-64
2021/07/08 07:10:23;;;;;;;38.85;26.42;;;23.80;99.90;;;;;;4442381;32;20221;-65
2021/07/08 07:12:53;;;;;;;40.10;26.58;;;23.70;99.90;;;;;;4435960;32;20142;-65
2021/07/08 07:15:25;;;;;;;36.58;24.27;;;23.80;99.90;;;;;;4436467;32;20429;-65
2021/07/08 07:17:53;;;;;;;36.42;25.70;;;23.90;99.90;;;;;;4440014;32;20241;-64
2021/07/08 07:20:21;;;;;;;37.78;25.65;;;24.20;99.90;;;;;;4442180;32;20139;-64
2021/07/08 07:22:48;;;;;;;35.83;23.37;;;24.20;99.90;;;;;;4442041;32;20188;-65
2021/07/08 07:25:19;;;;;;;39.58;28.33;;;24.30;99.90;;;;;;4441787;32;20402;-63
2021/07/08 07:27:49;;;;;;;34.15;24.25;;;24.40;99.90;;;;;;4429686;32;20151;-64
2021/07/08 07:30:17;;;;;;;32.72;24.60;;;24.40;99.90;;;;;;4424619;32;20496;-65
2021/07/08 07:32:44;;;;;;;33.70;23.80;;;24.80;99.90;;;;;;4426215;32;20239;-65
2021/07/08 07:35:12;;;;;;;34.83;25.15;;;25.00;99.90;;;;;;4426342;32;20177;-64
2021/07/08 07:37:40;;;;;;;33.20;23.83;;;25.10;99.90;;;;;;4425151;32;20178;-64
2021/07/08 07:40:08;;;;;;;32.28;23.42;;;25.20;99.90;;;;;;4426629;32;20196;-64
2021/07/08 07:42:36;;;;;;;36.45;24.30;;;25.10;99.90;;;;;;4426589;32;20184;-64
2021/07/08 07:45:05;;;;;;;34.90;24.90;;;25.10;99.90;;;;;;4426730;32;20460;-64
2021/07/08 07:47:32;;;;;;;32.75;23.17;;;25.00;99.90;;;;;;4426626;32;20513;-63
2021/07/08 07:49:59;;;;;;;33.30;22.62;;;24.80;99.90;;;;;;4433316;32;20158;-64
2021/07/08 07:52:26;;;;;;;31.77;22.55;;;24.70;99.90;;;;;;4440193;32;20457;-63
2021/07/08 07:54:53;;;;;;;29.10;21.45;;;25.00;99.90;;;;;;4441667;32;20191;-64
2021/07/08 07:57:20;;;;;;;36.28;24.52;;;25.30;99.90;;;;;;4431249;32;20281;-64
2021/07/08 07:59:47;;;;;;;32.50;24.50;;;25.30;99.90;;;;;;4424716;32;20181;-64
2021/07/08 08:02:14;;;;;;;30.77;21.98;;;25.10;99.90;;;;;;4429996;32;20169;-63
2021/07/08 08:10:20;;;;;;;32.25;24.40;;;25.30;99.90;;;;;;4424372;32;20228;-62
2021/07/08 08:12:48;;;;;;;28.70;21.80;;;25.10;99.90;;;;;;4420241;32;20225;-63
2021/07/08 08:15:17;;;;;;;33.28;22.52;;;25.20;99.90;;;;;;4419808;32;20166;-64
2021/07/08 08:17:46;;;;;;;28.83;21.58;;;25.30;99.90;;;;;;4423870;32;20146;-64
2021/07/08 08:20:14;;;;;;;30.80;22.37;;;25.60;99.90;;;;;;4423640;32;20157;-65
2021/07/08 08:22:42;;;;;;;31.10;21.35;;;25.80;99.90;;;;;;4423956;32;20201;-64
2021/07/08 08:25:11;;;;;;;34.53;24.45;;;25.80;99.90;;;;;;4421695;32;20425;-63
2021/07/08 08:27:38;;;;;;;33.60;22.75;;;26.30;99.90;;;;;;4423908;32;20196;-63
2021/07/08 08:30:07;;;;;;;32.83;22.45;;;26.70;99.90;;;;;;4423915;32;20165;-63
2021/07/08 08:32:35;;;;;;;31.67;21.90;;;27.40;99.90;;;;;;4423177;32;20399;-63
2021/07/08 08:35:02;;;;;;;29.00;22.25;;;28.00;99.90;;;;;;4422086;32;20147;-62
2021/07/08 08:37:29;;;;;;;28.67;21.12;;;28.50;99.90;;;;;;4422591;32;20147;-64
2021/07/08 08:39:56;;;;;;;34.67;23.45;;;28.80;99.90;;;;;;4421592;32;20532;-65
2021/07/08 08:42:27;;;;;;;33.67;23.10;;;29.20;99.90;;;;;;4423598;32;20182;-63
2021/07/08 08:44:56;;;;;;;34.72;23.27;;;29.00;99.90;;;;;;4433353;32;20143;-64
2021/07/08 08:47:24;;;;;;;31.40;23.92;;;28.90;99.90;;;;;;4440693;32;20209;-64
2021/07/08 08:49:53;;;;;;;29.90;22.10;;;29.40;99.90;;;;;;4441157;32;20437;-64
2021/07/08 08:52:21;;;;;;;34.63;24.90;;;29.70;99.90;;;;;;4441089;32;20147;-64
2021/07/08 08:54:51;;;;;;;30.27;22.37;;;29.90;99.90;;;;;;4440590;32;20143;-64
2021/07/08 08:57:18;;;;;;;30.33;22.80;;;30.30;99.90;;;;;;4440917;32;20211;-64
2021/07/08 08:59:45;;;;;;;31.10;23.48;;;30.70;99.90;;;;;;4439951;32;20138;-63
2021/07/08 09:02:18;;;;;;;40.17;28.27;;;31.20;99.90;;;;;;4439924;32;20135;-62
2021/07/08 09:04:46;;;;;;;35.47;26.10;;;30.30;99.90;;;;;;4440231;32;20200;-62
2021/07/08 09:07:23;;;;;;;38.42;26.83;;;30.20;99.90;;;;;;4440893;32;20160;-64
2021/07/08 09:09:56;;;;;;;32.38;24.25;;;30.40;99.90;;;;;;4440721;32;20134;-64
2021/07/08 09:12:24;;;;;;;32.92;23.73;;;30.80;99.90;;;;;;4439956;32;20150;-63
2021/07/08 09:15:08;;;;;;;34.08;25.50;;;31.20;99.90;;;;;;4440309;32;20528;-63
2021/07/08 09:17:39;;;;;;;31.60;24.05;;;31.20;99.90;;;;;;4437160;32;20231;-63
2021/07/08 09:20:09;;;;;;;31.50;23.75;;;31.50;99.90;;;;;;4440011;32;20178;-63
2021/07/08 09:22:36;;;;;;;29.73;22.92;;;31.20;99.90;;;;;;4441000;32;20147;-63
2021/07/08 09:25:18;;;;;;;30.15;22.65;;;31.30;99.90;;;;;;4440454;32;20493;-63
2021/07/08 09:28:22;;;;;;;35.42;24.80;;;31.40;99.90;;;;;;4440879;32;20169;-64
2021/07/08 09:31:03;;;;;;;30.37;23.38;;;31.40;99.90;;;;;;4438021;32;20259;-64
2021/07/08 09:33:35;;;;;;;31.45;23.17;;;31.40;99.90;;;;;;4440325;32;20155;-64
2021/07/08 09:36:16;;;;;;;35.90;24.12;;;31.50;99.90;;;;;;4440570;32;20154;-65
2021/07/08 09:38:57;;;;;;;28.48;21.90;;;31.60;99.90;;;;;;4425539;32;20468;-64
2021/07/08 09:41:25;;;;;;;29.73;22.77;;;31.70;99.90;;;;;;4424951;32;20196;-64
2021/07/08 09:43:52;;;;;;;33.13;23.30;;;32.00;99.90;;;;;;4423723;32;20230;-63
2021/07/08 09:46:35;;;;;;;31.92;24.42;;;32.30;99.90;;;;;;4432756;32;20199;-64
2021/07/08 09:49:08;;;;;;;34.00;24.83;;;32.30;99.90;;;;;;4438829;32;20142;-65
2021/07/08 09:51:36;;;;;;;33.83;23.87;;;32.50;99.90;;;;;;4439900;32;20162;-64
2021/07/08 09:54:26;;;;;;;29.85;21.77;;;32.70;99.90;;;;;;4438698;32;20158;-64
2021/07/08 09:56:54;;;;;;;33.28;24.17;;;33.00;99.90;;;;;;4440696;32;20173;-64
2021/07/08 09:59:22;;;;;;;32.17;23.85;;;32.90;99.90;;;;;;4442459;32;20168;-63
2021/07/08 10:01:57;;;;;;;32.65;24.50;;;32.80;99.90;;;;;;4443717;32;20175;-63
2021/07/08 10:04:25;;;;;;;30.70;23.67;;;32.90;99.90;;;;;;4442863;32;20165;-63
2021/07/08 10:06:54;;;;;;;34.85;26.15;;;32.70;99.90;;;;;;4443802;32;20164;-63
2021/07/08 10:09:23;;;;;;;37.58;25.27;;;32.30;99.90;;;;;;4443058;32;20177;-63
2021/07/08 10:11:54;;;;;;;36.10;25.83;;;32.70;99.90;;;;;;4443265;32;20181;-62
2021/07/08 10:14:23;;;;;;;40.50;28.50;;;32.30;99.90;;;;;;4443084;32;20350;-62
2021/07/08 10:16:52;;;;;;;42.10;28.80;;;32.40;99.90;;;;;;4443306;32;20166;-62
2021/07/08 10:19:21;;;;;;;43.38;29.35;;;32.20;99.90;;;;;;4443208;32;20193;-62
2021/07/08 10:21:50;;;;;;;37.22;26.48;;;31.80;99.90;;;;;;4442998;32;20235;-62
2021/07/08 10:24:20;;;;;;;40.38;26.62;;;32.50;99.90;;;;;;4441403;32;20189;-63
2021/07/08 10:26:48;;;;;;;36.88;26.55;;;32.80;99.90;;;;;;4442852;32;20199;-63
2021/07/08 10:29:16;;;;;;;38.08;26.58;;;32.50;99.90;;;;;;4443015;32;20138;-62
2021/07/08 10:31:48;;;;;;;40.28;27.87;;;33.10;99.90;;;;;;4440470;32;20181;-62
2021/07/08 10:34:20;;;;;;;43.42;27.67;;;32.80;99.90;;;;;;4443278;32;20539;-63
2021/07/08 10:36:53;;;;;;;38.40;26.40;;;33.50;99.90;;;;;;4442562;32;20147;-62
2021/07/08 10:39:23;;;;;;;36.53;26.17;;;34.20;97.80;;;;;;4442558;32;20154;-63
2021/07/08 10:41:59;;;;;;;40.72;26.95;;;34.30;96.80;;;;;;4442582;32;20162;-63
2021/07/08 10:44:37;;;;;;;32.95;24.15;;;34.50;95.80;;;;;;4442336;32;20499;-63
2021/07/08 10:47:24;;;;;;;38.58;25.90;;;34.70;96.00;;;;;;4443070;32;20194;-63
2021/07/08 10:49:51;;;;;;;35.05;26.30;;;35.20;94.30;;;;;;4442917;32;20197;-63
2021/07/08 10:52:47;;;;;;;37.92;24.77;;;35.70;93.50;;;;;;4442051;32;20142;-63
2021/07/08 10:55:35;;;;;;;32.55;23.35;;;35.50;92.80;;;;;;4442416;32;20151;-62
2021/07/08 10:58:02;;;;;;;34.90;25.00;;;35.00;93.50;;;;;;4440843;32;20151;-62
2021/07/08 11:00:47;;;;;;;36.65;24.37;;;35.10;92.90;;;;;;4441659;32;20165;-62
2021/07/08 11:03:47;;;;;;;31.17;23.62;;;35.60;92.80;;;;;;4441530;32;20147;-62
2021/07/08 11:06:23;;;;;;;32.65;22.70;;;35.90;91.70;;;;;;4379516;32;20525;-63
2021/07/08 11:09:19;;;;;;;31.52;23.50;;;35.80;91.70;;;;;;4379052;32;20159;-63
2021/07/08 11:11:46;;;;;;;39.72;24.52;;;36.40;90.00;;;;;;4379646;32;20170;-63
2021/07/08 11:14:15;;;;;;;29.73;22.55;;;36.40;89.10;;;;;;4374921;32;20159;-62
2021/07/08 11:17:02;;;;;;;28.40;21.92;;;36.20;87.10;;;;;;4371455;32;20215;-62
2021/07/08 11:19:31;;;;;;;31.52;22.37;;;35.50;90.50;;;;;;4379418;32;20436;-63
2021/07/08 11:22:05;;;;;;;26.70;20.37;;;35.60;90.70;;;;;;4378091;32;20244;-63
2021/07/08 11:24:40;;;;;;;27.13;20.92;;;36.00;90.90;;;;;;4379385;32;20279;-63
2021/07/08 11:27:12;;;;;;;25.65;20.30;;;36.70;90.10;;;;;;4378993;32;20144;-63
2021/07/08 11:29:50;;;;;;;26.83;21.10;;;36.90;86.00;;;;;;4379425;32;20170;-63
2021/07/08 11:32:18;;;;;;;27.83;19.92;;;36.70;85.00;;;;;;4379148;32;20445;-63
2021/07/08 11:35:18;;;;;;;25.17;19.15;;;36.80;85.00;;;;;;4379231;32;20230;-63
2021/07/08 11:37:55;;;;;;;26.83;19.92;;;37.10;84.70;;;;;;4377530;32;20153;-63
2021/07/08 11:40:24;;;;;;;24.23;19.90;;;37.10;83.20;;;;;;4379502;32;20401;-63
2021/07/08 11:42:52;;;;;;;27.58;20.67;;;37.30;82.10;;;;;;4420006;32;20371;-63
2021/07/08 11:45:22;;;;;;;24.83;20.12;;;37.70;82.30;;;;;;4426602;32;20183;-63
2021/07/08 11:47:57;;;;;;;23.65;18.83;;;38.20;79.30;;;;;;4425190;32;20186;-64
2021/07/08 11:50:32;;;;;;;23.80;18.12;;;38.20;77.80;;;;;;4426016;32;20198;-63
2021/07/08 11:53:11;;;;;;;22.05;18.30;;;38.60;77.60;;;;;;4426346;32;20142;-64
2021/07/08 11:55:42;;;;;;;25.23;17.73;;;39.30;76.20;;;;;;4425050;32;20154;-63
2021/07/08 11:58:11;;;;;;;18.08;16.08;;;39.40;72.40;;;;;;4426409;32;20182;-63
2021/07/08 12:00:43;;;;;;;21.08;16.05;;;39.10;71.10;;;;;;4426247;32;20143;-63
2021/07/08 12:03:25;;;;;;;17.67;14.82;;;39.10;70.30;;;;;;4426327;32;20158;-63
2021/07/08 12:06:01;;;;;;;15.77;13.73;;;39.40;67.90;;;;;;4425291;32;20151;-64
2021/07/08 12:08:29;;;;;;;16.58;13.45;;;39.30;66.80;;;;;;4426809;32;20146;-64
2021/07/08 12:11:11;;;;;;;17.40;12.15;;;39.50;65.90;;;;;;4425154;32;20147;-64
2021/07/08 12:14:00;;;;;;;17.87;10.82;;;39.20;65.40;;;;;;4426330;32;20176;-64
2021/07/08 12:16:34;;;;;;;11.12;8.77;;;38.80;66.10;;;;;;4426399;32;20151;-64
2021/07/08 12:19:14;;;;;;;9.77;7.53;;;39.40;62.60;;;;;;4425811;32;20177;-64
2021/07/08 12:21:44;;;;;;;8.45;6.30;;;40.00;58.80;;;;;;4425911;32;20157;-63
2021/07/08 12:24:23;;;;;;;9.13;7.50;;;39.60;55.80;;;;;;4425715;32;20212;-64
2021/07/08 12:26:52;;;;;;;6.07;5.37;;;39.50;56.10;;;;;;4425388;32;20186;-64
2021/07/08 12:29:27;;;;;;;7.95;5.57;;;39.20;54.00;;;;;;4426180;32;20387;-64
2021/07/08 12:31:56;;;;;;;6.05;5.37;;;39.30;55.00;;;;;;4425362;32;20453;-63
2021/07/08 12:34:54;;;;;;;7.55;5.53;;;39.30;52.00;;;;;;4425199;32;20222;-64
2021/07/08 12:37:23;;;;;;;8.73;5.60;;;39.40;53.20;;;;;;4431402;32;20181;-63
2021/07/08 12:40:04;;;;;;;6.32;4.60;;;39.80;53.00;;;;;;4430628;32;20207;-64
2021/07/08 12:42:43;;;;;;;6.35;5.03;;;39.70;49.90;;;;;;4440851;32;20430;-63
2021/07/08 12:45:12;;;;;;;9.70;5.10;;;40.00;50.90;;;;;;4441377;32;20177;-64
2021/07/08 12:47:47;;;;;;;7.05;4.60;;;40.50;50.50;;;;;;4440819;32;20217;-63